Time;durP1;ratioP1;P1;durP2;ratioP2;P2;SDS_P1;SDS_P2;PMS_P1;PMS_P2;Temp;Humidity;BMP_temperature;BMP_pressure;BME280_temperature;BME280_humidity;BME280_pressure;Samples;Min_cycle;Max_cycle;Signal;HPM_P1;HPM_P2
2023/08/08 00:00:39;;;;;;;6.35;4.68;;;13.20;99.90;;;;;;4997362;28;89707;-35
2023/08/08 00:03:05;;;;;;;7.80;4.90;;;13.20;99.90;;;;;;5010041;28;92285;-33
2023/08/08 00:05:30;;;;;;;13.73;5.43;;;13.20;99.90;;;;;;4999266;28;88545;-32
2023/08/08 00:07:56;;;;;;;7.80;5.43;;;13.20;99.90;;;;;;4999260;28;90111;-34
2023/08/08 00:10:21;;;;;;;8.75;5.35;;;13.20;99.90;;;;;;4998570;28;89815;-32
2023/08/08 00:12:47;;;;;;;5.15;4.70;;;13.30;99.90;;;;;;4998869;28;89707;-37
2023/08/08 00:15:13;;;;;;;6.05;4.80;;;13.30;99.90;;;;;;4998831;28;88046;-35
2023/08/08 00:17:38;;;;;;;7.03;5.15;;;13.30;99.90;;;;;;4999128;28;90905;-33
2023/08/08 00:20:05;;;;;;;5.60;5.10;;;13.30;99.90;;;;;;4999377;28;89695;-31
2023/08/08 00:22:30;;;;;;;7.43;6.63;;;13.30;99.90;;;;;;4997813;28;89354;-34
2023/08/08 00:24:56;;;;;;;6.75;5.40;;;13.30;99.90;;;;;;4998865;28;90140;-35
2023/08/08 00:27:22;;;;;;;5.22;4.72;;;13.30;99.90;;;;;;4998267;28;91136;-34
2023/08/08 00:29:48;;;;;;;7.38;5.35;;;13.40;99.90;;;;;;4998945;28;90568;-33
2023/08/08 00:32:13;;;;;;;5.40;4.90;;;13.40;99.90;;;;;;4997741;28;89594;-33
2023/08/08 00:34:39;;;;;;;5.53;4.93;;;13.40;99.90;;;;;;4998727;28;89053;-33
2023/08/08 00:37:05;;;;;;;5.85;5.25;;;13.40;99.90;;;;;;4999255;28;89673;-34
2023/08/08 00:39:30;;;;;;;6.00;4.90;;;13.40;99.90;;;;;;4998257;28;89826;-33
2023/08/08 00:41:56;;;;;;;5.22;4.72;;;13.40;99.90;;;;;;4998621;28;89368;-34
2023/08/08 00:44:21;;;;;;;6.57;4.90;;;13.40;99.90;;;;;;4998461;28;89903;-32
2023/08/08 00:46:47;;;;;;;12.77;5.90;;;13.40;99.90;;;;;;4997963;28;90001;-33
2023/08/08 00:49:13;;;;;;;8.68;5.20;;;13.40;99.90;;;;;;4997776;28;90693;-31
2023/08/08 00:51:39;;;;;;;6.38;5.78;;;13.40;99.90;;;;;;4997646;28;90322;-38
2023/08/08 00:54:04;;;;;;;7.07;5.35;;;13.50;99.90;;;;;;4998943;28;89053;-31
2023/08/08 00:56:31;;;;;;;6.00;5.47;;;13.40;99.90;;;;;;4996549;28;90353;-31
2023/08/08 00:58:57;;;;;;;7.13;5.63;;;13.50;99.90;;;;;;4997834;28;90217;-35
2023/08/08 01:01:23;;;;;;;6.00;5.43;;;13.40;99.90;;;;;;4998111;28;91064;-33
2023/08/08 01:03:49;;;;;;;6.13;5.35;;;13.50;99.90;;;;;;4984865;28;88501;-32
2023/08/08 01:06:21;;;;;;;5.68;5.20;;;13.50;99.90;;;;;;4998781;28;91588;-35
2023/08/08 01:08:55;;;;;;;9.18;5.60;;;13.50;99.90;;;;;;4985433;28;89668;-33
2023/08/08 01:11:21;;;;;;;10.25;6.25;;;13.50;99.90;;;;;;4978621;28;89901;-32
2023/08/08 01:13:47;;;;;;;13.43;6.18;;;13.50;99.90;;;;;;4981072;28;88875;-37
2023/08/08 01:16:13;;;;;;;7.47;6.60;;;13.40;99.90;;;;;;4988515;28;90198;-33
2023/08/08 01:18:40;;;;;;;5.10;4.60;;;13.40;99.90;;;;;;4981755;28;89368;-33
2023/08/08 01:21:08;;;;;;;8.38;6.57;;;13.40;99.90;;;;;;4989254;28;89190;-36
2023/08/08 01:23:53;;;;;;;7.07;4.97;;;13.40;99.90;;;;;;4983397;28;89150;-34
2023/08/08 01:26:21;;;;;;;11.02;6.90;;;13.40;99.90;;;;;;4992335;28;90005;-31
2023/08/08 01:28:46;;;;;;;11.82;6.57;;;13.40;99.90;;;;;;4994848;28;88893;-37
2023/08/08 01:31:12;;;;;;;7.07;6.38;;;13.40;99.90;;;;;;4988669;28;89220;-38
2023/08/08 01:33:38;;;;;;;7.30;5.25;;;13.40;99.90;;;;;;4978312;28;89172;-35
2023/08/08 01:36:30;;;;;;;12.18;6.75;;;13.40;99.90;;;;;;4978281;28;89921;-33
2023/08/08 01:39:04;;;;;;;8.35;5.65;;;13.50;99.90;;;;;;4977823;28;90936;-32
2023/08/08 01:41:32;;;;;;;6.90;6.05;;;13.50;99.90;;;;;;4977236;28;89172;-33
2023/08/08 01:43:58;;;;;;;;;;;13.50;99.90;;;;;;4979953;28;87859;-31
2023/08/08 01:46:24;;;;;;;9.82;6.03;;;13.50;99.90;;;;;;4979797;28;90256;-33
2023/08/08 01:48:50;;;;;;;6.75;5.20;;;13.40;99.90;;;;;;4978274;28;89310;-32
2023/08/08 01:51:15;;;;;;;8.15;6.30;;;13.40;99.90;;;;;;4978847;28;90223;-32
2023/08/08 01:53:41;;;;;;;9.85;6.15;;;13.40;99.90;;;;;;4978742;28;90054;-33
2023/08/08 01:56:07;;;;;;;8.38;6.05;;;13.40;99.90;;;;;;4991901;28;90332;-37
2023/08/08 01:58:32;;;;;;;10.48;6.43;;;13.40;99.90;;;;;;4978816;28;90273;-33
2023/08/08 02:00:58;;;;;;;8.63;6.20;;;13.40;99.90;;;;;;4991213;28;90041;-31
2023/08/08 02:03:23;;;;;;;12.05;6.22;;;13.40;99.90;;;;;;4977662;28;89611;-33
2023/08/08 02:05:49;;;;;;;8.48;6.18;;;13.40;99.90;;;;;;4980644;28;89975;-32
2023/08/08 02:08:15;;;;;;;6.95;6.13;;;13.30;99.90;;;;;;4998527;28;89132;-36
2023/08/08 02:10:40;;;;;;;9.43;6.50;;;13.40;99.90;;;;;;5000563;28;88801;-32
2023/08/08 02:13:06;;;;;;;6.60;6.00;;;13.40;99.90;;;;;;4991526;28;88787;-34
2023/08/08 02:15:32;;;;;;;8.65;6.18;;;13.40;99.90;;;;;;4993442;28;88789;-35
2023/08/08 02:17:59;;;;;;;8.30;6.78;;;13.40;99.90;;;;;;4981322;28;90151;-37
2023/08/08 02:20:25;;;;;;;9.50;6.50;;;13.40;99.90;;;;;;4982344;28;89320;-34
2023/08/08 02:22:50;;;;;;;7.22;6.28;;;13.30;99.90;;;;;;4981492;28;88463;-34
2023/08/08 02:25:16;;;;;;;8.00;6.47;;;13.30;99.90;;;;;;4981426;28;90098;-34
2023/08/08 02:27:42;;;;;;;10.27;6.28;;;13.30;99.90;;;;;;4980808;28;91077;-31
2023/08/08 02:30:08;;;;;;;9.65;6.53;;;13.30;99.90;;;;;;4996025;28;90558;-34
2023/08/08 02:32:33;;;;;;;8.45;6.55;;;13.30;99.90;;;;;;4981809;28;89700;-31
2023/08/08 02:34:59;;;;;;;10.35;5.75;;;13.30;99.90;;;;;;4994551;28;90001;-32
2023/08/08 02:37:25;;;;;;;6.35;5.70;;;13.30;99.90;;;;;;4999977;28;90348;-34
2023/08/08 02:39:50;;;;;;;17.83;6.72;;;13.30;99.90;;;;;;4999622;28;89437;-31
2023/08/08 02:42:16;;;;;;;8.40;6.25;;;13.30;99.90;;;;;;5001212;28;87879;-37
2023/08/08 02:44:41;;;;;;;8.25;5.25;;;13.30;99.90;;;;;;5000581;28;90388;-31
2023/08/08 02:47:07;;;;;;;7.85;5.13;;;13.30;99.90;;;;;;4999818;28;89386;-36
2023/08/08 02:49:33;;;;;;;7.60;6.18;;;13.30;99.90;;;;;;4999784;28;89025;-34
2023/08/08 02:51:59;;;;;;;8.50;5.65;;;13.30;99.90;;;;;;4992443;28;89086;-34
2023/08/08 02:54:25;;;;;;;5.53;5.03;;;13.30;99.90;;;;;;4982874;28;90489;-31
2023/08/08 02:56:51;;;;;;;9.32;5.30;;;13.30;99.90;;;;;;4992640;28;89668;-35
2023/08/08 02:59:16;;;;;;;6.50;5.72;;;13.30;99.90;;;;;;4981281;28;90467;-38
2023/08/08 03:01:42;;;;;;;6.40;5.35;;;13.40;99.90;;;;;;4994886;28;89567;-32
2023/08/08 03:04:08;;;;;;;11.63;6.28;;;13.40;99.90;;;;;;5006651;28;90548;-35
2023/08/08 03:06:33;;;;;;;8.93;5.88;;;13.40;99.90;;;;;;5000154;28;88670;-33
2023/08/08 03:08:59;;;;;;;7.82;5.90;;;13.40;99.90;;;;;;4999517;28;89947;-33
2023/08/08 03:11:25;;;;;;;15.43;7.22;;;13.40;99.90;;;;;;4999199;28;89494;-39
2023/08/08 03:13:50;;;;;;;8.65;5.35;;;13.40;99.90;;;;;;5000388;28;88293;-33
2023/08/08 03:16:16;;;;;;;11.82;6.20;;;13.40;99.90;;;;;;4998199;28;90539;-35
2023/08/08 03:18:41;;;;;;;7.38;5.95;;;13.40;99.90;;;;;;5000661;28;90570;-31
2023/08/08 03:21:07;;;;;;;7.85;5.90;;;13.40;99.90;;;;;;4997920;28;90074;-36
2023/08/08 03:23:33;;;;;;;8.75;6.18;;;13.40;99.90;;;;;;5000564;28;89416;-32
2023/08/08 03:25:58;;;;;;;7.53;6.35;;;13.40;99.90;;;;;;4999144;28;89565;-31
2023/08/08 03:28:24;;;;;;;9.65;5.57;;;13.40;99.90;;;;;;4999368;28;90283;-38
2023/08/08 03:30:50;;;;;;;11.18;6.03;;;13.40;99.90;;;;;;4999664;28;89176;-34
2023/08/08 03:33:15;;;;;;;11.02;5.90;;;13.40;99.90;;;;;;4999480;28;89644;-34
2023/08/08 03:35:43;;;;;;;10.50;6.22;;;13.40;99.90;;;;;;4999465;28;89747;-35
2023/08/08 03:38:08;;;;;;;11.87;8.00;;;13.40;99.90;;;;;;4999540;28;89842;-32
2023/08/08 03:40:34;;;;;;;9.73;5.55;;;13.40;99.90;;;;;;4999072;28;88792;-31
2023/08/08 03:43:00;;;;;;;8.95;6.05;;;13.40;99.90;;;;;;5000325;28;89721;-31
2023/08/08 03:45:25;;;;;;;10.05;6.90;;;13.40;99.90;;;;;;4999095;28;90952;-31
2023/08/08 03:47:51;;;;;;;8.73;6.50;;;13.40;99.90;;;;;;4999835;28;90153;-31
2023/08/08 03:50:17;;;;;;;10.05;6.72;;;13.40;99.90;;;;;;4998806;28;89835;-35
2023/08/08 03:52:42;;;;;;;9.70;6.03;;;13.40;99.90;;;;;;4999466;28;90383;-32
2023/08/08 03:55:08;;;;;;;6.32;5.72;;;13.40;99.90;;;;;;4998696;28;89918;-35
2023/08/08 03:57:34;;;;;;;10.63;6.32;;;13.40;99.90;;;;;;4999175;28;89929;-37
2023/08/08 03:59:59;;;;;;;7.78;6.72;;;13.40;99.90;;;;;;4994264;28;88183;-33
2023/08/08 04:02:25;;;;;;;11.55;6.03;;;13.40;99.90;;;;;;4995406;28;90260;-32
2023/08/08 04:04:51;;;;;;;5.95;5.22;;;13.40;99.90;;;;;;4999107;28;90156;-36
2023/08/08 04:07:16;;;;;;;12.20;5.40;;;13.40;99.90;;;;;;4979846;28;89448;-35
2023/08/08 04:09:42;;;;;;;7.95;6.30;;;13.40;99.90;;;;;;4989539;28;89016;-33
2023/08/08 04:12:08;;;;;;;6.88;5.13;;;13.40;99.90;;;;;;4979439;28;89883;-31
2023/08/08 04:14:34;;;;;;;6.07;5.47;;;13.40;99.90;;;;;;4978697;28;90461;-34
2023/08/08 04:16:59;;;;;;;7.50;4.50;;;13.40;99.90;;;;;;4979151;28;89716;-32
2023/08/08 04:19:25;;;;;;;7.25;4.82;;;13.40;99.90;;;;;;4979507;28;89901;-30
2023/08/08 04:21:51;;;;;;;9.40;6.47;;;13.40;99.90;;;;;;4979495;28;90294;-35
2023/08/08 04:24:17;;;;;;;8.27;5.15;;;13.40;99.90;;;;;;4989914;28;89715;-34
2023/08/08 04:26:43;;;;;;;8.13;4.95;;;13.40;99.90;;;;;;4994094;28;89740;-37
2023/08/08 04:29:08;;;;;;;8.90;6.00;;;13.40;99.90;;;;;;4985290;28;89660;-37
2023/08/08 04:31:34;;;;;;;10.80;5.38;;;13.40;99.90;;;;;;4998712;28;89288;-36
2023/08/08 04:34:00;;;;;;;13.55;4.70;;;13.40;99.90;;;;;;4979093;28;89906;-32
2023/08/08 04:36:29;;;;;;;6.15;3.90;;;13.40;99.90;;;;;;4992035;28;89935;-35
2023/08/08 04:38:56;;;;;;;9.27;4.40;;;13.40;99.90;;;;;;4985936;28;87973;-33
2023/08/08 04:41:21;;;;;;;7.10;5.32;;;13.40;99.90;;;;;;4997626;28;90386;-36
2023/08/08 04:43:47;;;;;;;10.02;5.07;;;13.50;99.90;;;;;;4998783;28;89979;-37
2023/08/08 04:46:13;;;;;;;6.82;4.35;;;13.50;99.90;;;;;;4998229;28;89948;-37
2023/08/08 04:48:39;;;;;;;8.43;4.47;;;13.50;99.90;;;;;;4978955;28;89412;-34
2023/08/08 04:51:05;;;;;;;8.25;4.60;;;13.50;99.90;;;;;;4978256;28;90204;-37
2023/08/08 04:53:31;;;;;;;12.40;4.65;;;13.50;99.90;;;;;;4984460;28;91019;-33
2023/08/08 04:55:57;;;;;;;8.05;4.55;;;13.50;99.90;;;;;;4998598;28;90323;-35
2023/08/08 04:58:22;;;;;;;5.28;4.78;;;13.50;99.90;;;;;;4991402;28;88925;-35
2023/08/08 05:00:48;;;;;;;9.38;4.45;;;13.50;99.90;;;;;;4992681;28;90197;-32
2023/08/08 05:03:14;;;;;;;5.75;3.63;;;13.60;99.90;;;;;;4998203;28;91168;-33
2023/08/08 05:05:39;;;;;;;5.90;4.25;;;13.70;99.90;;;;;;4985471;28;89422;-34
2023/08/08 05:08:05;;;;;;;6.90;3.50;;;13.80;99.90;;;;;;4989274;28;87959;-32
2023/08/08 05:10:31;;;;;;;7.65;3.45;;;13.80;99.90;;;;;;4978159;28;90360;-36
2023/08/08 05:12:57;;;;;;;8.15;3.90;;;13.70;99.90;;;;;;4979216;28;89336;-34
2023/08/08 05:15:23;;;;;;;10.98;3.72;;;13.70;99.90;;;;;;4994175;28;90605;-38
2023/08/08 05:17:48;;;;;;;4.57;3.53;;;13.70;99.90;;;;;;4998220;28;90233;-35
2023/08/08 05:20:15;;;;;;;8.13;3.47;;;13.70;99.90;;;;;;4989544;28;91698;-32
2023/08/08 05:22:40;;;;;;;8.82;3.42;;;13.70;99.90;;;;;;4995647;28;89313;-34
2023/08/08 05:25:06;;;;;;;4.38;3.08;;;13.70;99.90;;;;;;4991825;28;89742;-37
2023/08/08 05:27:32;;;;;;;5.90;3.67;;;13.80;99.90;;;;;;4991501;28;88415;-33
2023/08/08 05:29:58;;;;;;;5.40;2.83;;;13.90;99.90;;;;;;4994966;28;91341;-34
2023/08/08 05:32:23;;;;;;;4.38;2.70;;;14.10;99.90;;;;;;4988205;28;90113;-35
2023/08/08 05:34:51;;;;;;;3.85;3.45;;;14.40;99.90;;;;;;4976254;28;89131;-32
2023/08/08 05:37:16;;;;;;;4.93;3.17;;;14.60;99.90;;;;;;4977317;28;88948;-39
2023/08/08 05:39:42;;;;;;;5.40;3.00;;;14.80;99.90;;;;;;4976795;28;90066;-35
2023/08/08 05:42:08;;;;;;;8.98;2.85;;;15.00;99.90;;;;;;4975544;28;90546;-38
2023/08/08 05:44:34;;;;;;;5.50;2.33;;;15.00;99.90;;;;;;4979442;28;90531;-36
2023/08/08 05:46:59;;;;;;;7.35;3.08;;;15.00;99.90;;;;;;4979794;28;89046;-33
2023/08/08 05:49:25;;;;;;;3.33;2.58;;;14.90;99.90;;;;;;4979749;28;88975;-33
2023/08/08 05:51:50;;;;;;;4.57;2.53;;;15.00;99.90;;;;;;4978887;28;90143;-37
2023/08/08 05:54:16;;;;;;;6.35;2.85;;;14.90;99.90;;;;;;4979130;28;89008;-37
2023/08/08 05:56:42;;;;;;;5.00;2.40;;;14.90;99.90;;;;;;5000014;28;88775;-34
2023/08/08 05:59:07;;;;;;;5.65;2.65;;;14.90;99.90;;;;;;4998162;28;91096;-35
2023/08/08 06:01:34;;;;;;;10.80;2.85;;;14.90;99.90;;;;;;4999391;28;90137;-32
2023/08/08 06:04:00;;;;;;;3.47;2.05;;;14.90;99.90;;;;;;4998109;28;89423;-36
2023/08/08 06:06:26;;;;;;;5.40;2.03;;;14.90;99.90;;;;;;4998549;28;89995;-34
2023/08/08 06:08:52;;;;;;;5.63;2.47;;;14.90;99.90;;;;;;4999215;28;90371;-33
2023/08/08 06:11:18;;;;;;;5.57;2.05;;;14.80;99.90;;;;;;4998024;28;89540;-31
2023/08/08 06:13:43;;;;;;;2.65;1.65;;;14.90;99.90;;;;;;4998922;28;89931;-36
2023/08/08 06:16:09;;;;;;;7.82;2.75;;;14.90;99.90;;;;;;4998288;28;89765;-36
2023/08/08 06:18:35;;;;;;;4.85;1.83;;;14.90;99.90;;;;;;4997613;28;90105;-36
2023/08/08 06:21:02;;;;;;;6.43;2.45;;;15.00;99.90;;;;;;4998843;28;89704;-30
2023/08/08 06:23:27;;;;;;;4.47;2.25;;;14.90;99.90;;;;;;4997510;28;90305;-37
2023/08/08 06:25:53;;;;;;;4.63;2.00;;;14.90;99.90;;;;;;4999124;28;88417;-35
2023/08/08 06:28:19;;;;;;;6.40;2.05;;;14.90;99.90;;;;;;4997415;28;90423;-34
2023/08/08 06:30:45;;;;;;;2.90;1.88;;;15.10;99.90;;;;;;4992134;28;91322;-34
2023/08/08 06:33:10;;;;;;;5.55;2.13;;;15.30;99.90;;;;;;4991618;28;91146;-34
2023/08/08 06:35:36;;;;;;;3.83;1.65;;;15.50;99.90;;;;;;4996739;28;87712;-32
2023/08/08 06:38:02;;;;;;;4.15;2.55;;;15.70;99.90;;;;;;4997928;28;90521;-33
2023/08/08 06:40:28;;;;;;;7.32;2.25;;;15.90;99.90;;;;;;4996212;28;90217;-35
2023/08/08 06:42:55;;;;;;;4.05;1.92;;;16.10;99.90;;;;;;4996777;28;89648;-36
2023/08/08 06:45:21;;;;;;;3.42;1.40;;;16.30;99.90;;;;;;4997528;28;89230;-34
2023/08/08 06:47:46;;;;;;;4.05;1.98;;;16.60;99.90;;;;;;4997026;28;89835;-36
2023/08/08 06:50:12;;;;;;;5.43;1.88;;;16.80;99.90;;;;;;4997362;28;89890;-33
2023/08/08 06:52:38;;;;;;;5.43;2.00;;;17.00;99.90;;;;;;4983927;28;89456;-32
2023/08/08 06:55:04;;;;;;;5.88;2.25;;;17.20;99.90;;;;;;4988976;28;89353;-34
2023/08/08 06:57:33;;;;;;;2.42;1.48;;;17.30;99.90;;;;;;4983871;28;90012;-37
2023/08/08 06:59:58;;;;;;;5.55;1.88;;;17.40;99.90;;;;;;4989501;28;90836;-36
2023/08/08 07:02:24;;;;;;;7.15;1.88;;;17.70;99.90;;;;;;4993426;28;89558;-37
2023/08/08 07:04:50;;;;;;;4.65;2.10;;;17.80;99.90;;;;;;4997625;28;87548;-34
2023/08/08 07:07:15;;;;;;;4.55;2.53;;;17.90;99.90;;;;;;4996834;28;91589;-35
2023/08/08 07:09:41;;;;;;;6.13;1.73;;;18.20;99.90;;;;;;4988025;28;89465;-33
2023/08/08 07:12:07;;;;;;;11.82;2.00;;;18.50;99.90;;;;;;4977313;28;91416;-37
2023/08/08 07:14:33;;;;;;;2.25;1.63;;;18.70;99.90;;;;;;4978346;28;88973;-35
2023/08/08 07:16:59;;;;;;;2.72;1.92;;;18.90;99.90;;;;;;4991339;28;90124;-35
2023/08/08 07:19:25;;;;;;;4.03;2.05;;;18.60;99.90;;;;;;4988640;28;90762;-37
2023/08/08 07:21:50;;;;;;;8.00;2.03;;;18.90;99.90;;;;;;4984348;28;89353;-36
2023/08/08 07:24:16;;;;;;;4.47;1.95;;;19.10;99.90;;;;;;4986708;28;90053;-33
2023/08/08 07:26:42;;;;;;;2.92;1.45;;;18.80;99.90;;;;;;4979065;28;91012;-37
2023/08/08 07:29:08;;;;;;;6.43;1.85;;;19.20;99.90;;;;;;4984685;28;89969;-32
2023/08/08 07:31:33;;;;;;;6.05;1.95;;;19.00;99.90;;;;;;4987643;28;89325;-31
2023/08/08 07:33:59;;;;;;;3.15;1.52;;;19.00;99.90;;;;;;4992580;28;89073;-36
2023/08/08 07:36:25;;;;;;;2.50;1.98;;;19.30;99.90;;;;;;4992216;28;91236;-36
2023/08/08 07:38:51;;;;;;;2.22;1.70;;;19.40;99.90;;;;;;4991702;28;89320;-35
2023/08/08 07:41:17;;;;;;;6.25;1.42;;;19.60;99.90;;;;;;4992456;28;89736;-33
2023/08/08 07:43:43;;;;;;;3.05;1.35;;;19.70;99.90;;;;;;4983767;28;89503;-35
2023/08/08 07:46:09;;;;;;;5.25;1.67;;;19.70;99.90;;;;;;4991591;28;90149;-33
2023/08/08 07:48:35;;;;;;;2.78;2.08;;;19.60;99.90;;;;;;4992626;28;89947;-34
2023/08/08 07:51:00;;;;;;;3.72;1.15;;;19.40;99.90;;;;;;4992138;28;89895;-37
2023/08/08 07:53:26;;;;;;;5.93;1.40;;;19.60;99.90;;;;;;4993222;28;89188;-32
2023/08/08 07:55:52;;;;;;;2.10;1.30;;;19.50;99.90;;;;;;4987153;28;90247;-31
2023/08/08 07:58:17;;;;;;;2.08;1.40;;;19.50;99.90;;;;;;4992164;28;89165;-32
2023/08/08 08:00:44;;;;;;;3.47;1.10;;;19.50;99.90;;;;;;4988436;28;89877;-33
2023/08/08 08:03:10;;;;;;;1.63;1.35;;;19.20;99.90;;;;;;4997224;28;89441;-33
2023/08/08 08:05:36;;;;;;;3.03;1.13;;;18.70;99.90;;;;;;4993791;28;91202;-34
2023/08/08 08:08:02;;;;;;;2.58;1.10;;;18.90;99.90;;;;;;4976360;28;90597;-32
2023/08/08 08:10:28;;;;;;;3.72;1.85;;;19.00;99.90;;;;;;4978030;28;90688;-31
2023/08/08 08:12:58;;;;;;;3.75;1.08;;;19.00;99.90;;;;;;4977871;28;89151;-32
2023/08/08 08:15:48;;;;;;;1.95;1.27;;;18.60;99.90;;;;;;5013091;22;90178;-33
2023/08/08 08:18:16;;;;;;;4.60;1.52;;;18.40;99.90;;;;;;4973853;28;90157;-33
2023/08/08 08:20:42;;;;;;;;;;;18.30;99.90;;;;;;4978173;28;89326;-31
2023/08/08 08:23:08;;;;;;;2.10;1.50;;;18.40;99.90;;;;;;4966473;28;89192;-31
2023/08/08 08:25:33;;;;;;;2.75;1.35;;;18.40;99.90;;;;;;4980393;28;91061;-34
2023/08/08 08:27:59;;;;;;;3.85;1.38;;;18.40;99.90;;;;;;4975779;28;90105;-32
2023/08/08 08:30:26;;;;;;;1.30;1.02;;;18.30;99.90;;;;;;4975975;28;89143;-32
2023/08/08 08:32:52;;;;;;;3.17;1.37;;;18.30;99.90;;;;;;4977500;28;90557;-31
2023/08/08 08:35:18;;;;;;;4.32;1.60;;;18.30;99.90;;;;;;4973190;28;90494;-31
2023/08/08 08:37:44;;;;;;;1.52;1.27;;;18.20;99.90;;;;;;4976362;28;88213;-34
2023/08/08 08:40:10;;;;;;;4.70;1.65;;;18.40;99.90;;;;;;4975087;28;90922;-30
2023/08/08 08:42:38;;;;;;;1.77;1.50;;;18.40;99.90;;;;;;4976680;28;90251;-36
2023/08/08 08:45:05;;;;;;;2.97;1.42;;;18.50;99.90;;;;;;4975532;28;90600;-38
2023/08/08 08:47:32;;;;;;;2.38;1.50;;;18.50;99.90;;;;;;4976040;28;89735;-35
2023/08/08 08:49:59;;;;;;;6.13;1.40;;;18.70;99.90;;;;;;4976209;28;89502;-35
2023/08/08 08:52:24;;;;;;;4.25;1.23;;;18.70;99.90;;;;;;4976260;28;91737;-33
2023/08/08 08:54:53;;;;;;;2.80;1.38;;;18.50;99.90;;;;;;4976393;28;90375;-31
2023/08/08 08:57:21;;;;;;;2.88;1.27;;;18.90;99.90;;;;;;4975347;28;89876;-33
2023/08/08 08:59:46;;;;;;;5.82;1.48;;;19.00;99.90;;;;;;4976346;28;90465;-35
2023/08/08 09:02:12;;;;;;;2.75;1.48;;;19.10;99.90;;;;;;4976084;28;90040;-32
2023/08/08 09:04:39;;;;;;;2.40;0.98;;;19.20;99.90;;;;;;4975737;28;90047;-35
2023/08/08 09:07:06;;;;;;;3.13;1.27;;;19.00;99.90;;;;;;4975611;28;90417;-33
2023/08/08 09:09:33;;;;;;;5.47;1.48;;;19.10;99.90;;;;;;4976832;28;90033;-37
2023/08/08 09:11:58;;;;;;;3.92;1.92;;;19.00;99.90;;;;;;4976609;28;88058;-33
2023/08/08 09:14:26;;;;;;;2.05;1.27;;;18.80;99.90;;;;;;4975314;28;90427;-30
2023/08/08 09:16:53;;;;;;;2.90;1.00;;;19.00;99.90;;;;;;4975078;28;89759;-34
2023/08/08 09:19:20;;;;;;;2.83;1.55;;;19.10;99.90;;;;;;4977534;28;89525;-34
2023/08/08 09:21:47;;;;;;;4.57;1.20;;;19.00;99.90;;;;;;4978518;28;89101;-33
2023/08/08 09:24:12;;;;;;;2.65;1.63;;;18.90;99.90;;;;;;4978582;28;90364;-38
2023/08/08 09:26:42;;;;;;;3.15;1.20;;;18.70;99.90;;;;;;4979529;28;89733;-34
2023/08/08 09:29:08;;;;;;;2.55;1.65;;;18.40;99.90;;;;;;4970976;28;89972;-33
2023/08/08 09:31:35;;;;;;;2.92;1.88;;;17.90;99.90;;;;;;4979350;28;89197;-35
2023/08/08 09:34:03;;;;;;;8.50;1.40;;;17.80;99.90;;;;;;4957773;28;90344;-30
2023/08/08 09:36:28;;;;;;;3.83;1.57;;;17.90;99.90;;;;;;4973055;28;90023;-35
2023/08/08 09:38:55;;;;;;;5.50;1.60;;;18.00;99.90;;;;;;4979357;28;89507;-35
2023/08/08 09:41:22;;;;;;;2.53;1.55;;;17.80;99.90;;;;;;4978698;28;90465;-35
2023/08/08 09:43:49;;;;;;;2.92;1.45;;;17.70;99.90;;;;;;4979850;28;90630;-33
2023/08/08 09:46:18;;;;;;;1.67;1.48;;;17.90;99.90;;;;;;4978192;28;90535;-35
2023/08/08 09:48:44;;;;;;;1.42;1.33;;;18.10;99.90;;;;;;4978836;28;89575;-37
2023/08/08 09:51:09;;;;;;;3.63;1.55;;;18.00;99.90;;;;;;4979086;28;89422;-32
2023/08/08 09:53:36;;;;;;;3.22;1.52;;;18.00;99.90;;;;;;4979407;28;90651;-31
2023/08/08 09:56:04;;;;;;;3.00;1.67;;;18.00;99.90;;;;;;4978762;28;89435;-31
2023/08/08 09:58:30;;;;;;;7.15;2.58;;;17.70;99.90;;;;;;4979386;28;89668;-37
2023/08/08 10:00:56;;;;;;;8.27;2.85;;;17.60;99.90;;;;;;4979437;28;89563;-32
2023/08/08 10:03:22;;;;;;;5.65;2.28;;;16.90;99.90;;;;;;4978981;28;90338;-32
2023/08/08 10:05:48;;;;;;;4.38;2.17;;;16.80;99.90;;;;;;4978049;28;89809;-31
2023/08/08 10:08:18;;;;;;;9.82;2.10;;;16.60;99.90;;;;;;4978915;28;89597;-31
2023/08/08 10:10:45;;;;;;;9.40;2.65;;;16.70;99.90;;;;;;4978648;28;89002;-32
2023/08/08 10:13:20;;;;;;;2.90;1.83;;;16.90;99.90;;;;;;4978887;28;90238;-36
2023/08/08 10:15:46;;;;;;;2.97;1.75;;;17.30;99.90;;;;;;4973952;28;89258;-34
2023/08/08 10:18:13;;;;;;;2.20;1.50;;;17.50;99.90;;;;;;4978309;28;89010;-33
2023/08/08 10:20:44;;;;;;;2.33;2.13;;;17.50;99.90;;;;;;4978119;28;87737;-37
2023/08/08 10:23:09;;;;;;;2.42;2.13;;;17.40;99.90;;;;;;4977992;28;89745;-33
2023/08/08 10:25:36;;;;;;;4.10;1.48;;;17.40;99.90;;;;;;4978255;28;89750;-34
2023/08/08 10:28:16;;;;;;;6.18;1.95;;;17.10;99.90;;;;;;4979556;28;89708;-31
2023/08/08 10:30:52;;;;;;;4.03;2.13;;;17.00;99.90;;;;;;4978474;28;88544;-35
2023/08/08 10:33:26;;;;;;;2.10;1.48;;;16.60;99.90;;;;;;4977153;28;91621;-33
2023/08/08 10:36:00;;;;;;;3.10;1.75;;;16.90;99.90;;;;;;4977598;28;91634;-33
2023/08/08 10:38:39;;;;;;;6.93;2.00;;;17.20;99.90;;;;;;4975730;28;90365;-34
2023/08/08 10:41:05;;;;;;;2.40;1.60;;;17.40;99.90;;;;;;4968170;28;89876;-34
2023/08/08 10:43:31;;;;;;;2.42;1.75;;;17.60;99.90;;;;;;4976444;28;90387;-35
2023/08/08 10:46:01;;;;;;;5.13;2.58;;;17.80;99.90;;;;;;4976517;28;90234;-32
2023/08/08 10:48:27;;;;;;;4.25;1.95;;;18.00;99.90;;;;;;4973233;28;89880;-32
2023/08/08 10:50:58;;;;;;;7.65;2.28;;;18.10;99.90;;;;;;4978033;28;88161;-37
2023/08/08 10:53:28;;;;;;;7.00;2.35;;;18.20;99.90;;;;;;4977267;28;91506;-34
2023/08/08 10:56:03;;;;;;;2.03;1.67;;;18.30;99.90;;;;;;4977930;28;88599;-31
2023/08/08 10:58:39;;;;;;;2.17;1.65;;;18.40;99.90;;;;;;4978144;28;90044;-36
2023/08/08 11:01:08;;;;;;;1.70;1.60;;;18.40;99.90;;;;;;4979949;28;89505;-33
2023/08/08 11:03:37;;;;;;;3.10;1.48;;;18.30;99.90;;;;;;4978655;28;90369;-37
2023/08/08 11:06:03;;;;;;;4.25;1.92;;;18.10;99.90;;;;;;4977335;28;90112;-33
2023/08/08 11:08:32;;;;;;;4.22;2.00;;;18.10;99.90;;;;;;4976479;28;89787;-33
2023/08/08 11:10:59;;;;;;;2.35;1.73;;;17.80;99.90;;;;;;4977245;28;87560;-33
2023/08/08 11:13:25;;;;;;;2.33;1.80;;;17.80;99.90;;;;;;4977353;28;90148;-33
2023/08/08 11:15:51;;;;;;;4.47;1.88;;;17.80;99.90;;;;;;4951283;28;89479;-36
2023/08/08 11:18:17;;;;;;;3.95;1.50;;;18.10;99.90;;;;;;4977344;28;89787;-37
2023/08/08 11:20:43;;;;;;;6.28;2.35;;;18.30;99.90;;;;;;4978323;28;88869;-37
2023/08/08 11:23:10;;;;;;;2.83;1.75;;;18.40;99.90;;;;;;4977559;28;90680;-31
2023/08/08 11:25:39;;;;;;;4.93;2.00;;;18.50;99.90;;;;;;4969562;28;90351;-36
2023/08/08 11:28:05;;;;;;;1.95;1.45;;;18.60;99.90;;;;;;4976854;28;90580;-36
2023/08/08 11:30:34;;;;;;;1.63;1.30;;;18.80;99.90;;;;;;4977025;28;88428;-33
2023/08/08 11:33:01;;;;;;;3.10;2.17;;;18.90;99.90;;;;;;4977928;28;91214;-34
2023/08/08 11:35:27;;;;;;;3.90;2.42;;;19.00;99.90;;;;;;4977302;28;89757;-31
2023/08/08 11:37:54;;;;;;;3.03;1.92;;;19.00;99.90;;;;;;4978809;28;89134;-36
2023/08/08 11:40:22;;;;;;;8.15;1.77;;;19.10;99.90;;;;;;4977476;28;89615;-33
2023/08/08 11:42:50;;;;;;;5.95;2.42;;;19.00;99.90;;;;;;4976953;28;90123;-32
2023/08/08 11:45:16;;;;;;;;;;;19.10;99.90;;;;;;4977382;28;90092;-34
2023/08/08 11:47:42;;;;;;;2.78;1.45;;;19.00;99.90;;;;;;4978462;28;89910;-35
2023/08/08 11:50:10;;;;;;;2.17;1.52;;;18.90;99.90;;;;;;4976820;28;89816;-35
2023/08/08 11:52:40;;;;;;;2.00;1.80;;;19.00;99.90;;;;;;4975746;28;90496;-32
2023/08/08 11:55:08;;;;;;;7.40;1.83;;;18.70;99.90;;;;;;4977108;28;89753;-32
2023/08/08 11:57:37;;;;;;;2.65;1.25;;;18.60;99.90;;;;;;4977322;28;89376;-36
2023/08/08 12:00:07;;;;;;;4.60;2.13;;;18.70;99.90;;;;;;4977231;28;89672;-37
2023/08/08 12:02:33;;;;;;;3.65;1.90;;;18.50;99.90;;;;;;4977015;28;89855;-34
2023/08/08 12:05:07;;;;;;;2.28;1.63;;;18.60;99.90;;;;;;4977534;28;89775;-35
2023/08/08 12:07:36;;;;;;;3.53;2.20;;;18.50;99.90;;;;;;4977267;28;89902;-36
2023/08/08 12:10:06;;;;;;;3.60;1.98;;;18.60;99.90;;;;;;4976970;28;90211;-32
2023/08/08 12:12:35;;;;;;;4.00;1.67;;;18.60;99.90;;;;;;4975018;28;91347;-34
2023/08/08 12:15:08;;;;;;;1.60;1.50;;;18.60;99.90;;;;;;4975038;28;90471;-33
2023/08/08 12:17:35;;;;;;;3.28;1.83;;;18.70;99.90;;;;;;4976529;28;90080;-35
2023/08/08 12:20:05;;;;;;;1.65;1.30;;;18.80;99.90;;;;;;4976563;28;89178;-33
2023/08/08 12:22:31;;;;;;;7.65;2.30;;;19.00;99.90;;;;;;4976706;28;89919;-31
2023/08/08 12:24:56;;;;;;;2.08;1.55;;;19.10;99.90;;;;;;4977370;28;89930;-35
2023/08/08 12:27:22;;;;;;;2.67;1.52;;;19.10;99.90;;;;;;4975812;28;89156;-34
2023/08/08 12:29:48;;;;;;;3.92;1.83;;;19.10;99.90;;;;;;4978258;28;89164;-33
2023/08/08 12:32:13;;;;;;;7.95;2.20;;;19.30;99.90;;;;;;4976463;28;91503;-32
2023/08/08 12:34:39;;;;;;;3.63;1.55;;;19.40;99.90;;;;;;4976299;28;89517;-34
2023/08/08 12:37:04;;;;;;;5.30;1.90;;;19.40;99.90;;;;;;4976536;28;89521;-36
2023/08/08 12:39:30;;;;;;;3.95;1.83;;;19.30;99.90;;;;;;4958736;28;89430;-36
2023/08/08 12:41:56;;;;;;;4.78;1.67;;;19.30;99.90;;;;;;4976139;28;89315;-33